Promitheas — SYIJ — position and weather

sailwx.info

Track history (hours):
 
Tides and Currents Weather Stations Pressure Air Temp Water Temp Dewpoint Dewpoint Depression Visibility Wind Speed Wind Dir Waves Ship Positions

Promitheas

Last reported at 2015-Mar-31 14:33 UTC. Time now 2015-Mar-31 15:34 UTC.
Position N 54°20' E 007°04'.

Length 249 m; draft 14.5 m.

Type: Ship (hazmat cat A). MMSI: 240547000.

Date/timePositionNaut miles runAvg speedWind from/ knotsBaromVisibWave heightAir tempDewpointWater temp
2015-Mar-31 14:33N 54°20' E 007°04'1 1.1
2015-Mar-31 13:33N 54°20' E 007°06'2 2.0
2015-Mar-31 12:33N 54°20' E 007°10'2 1.7
2015-Mar-31 11:33N 54°19' E 007°12'2 2.4
2015-Mar-31 10:33N 54°17' E 007°15'4 3.5
2015-Mar-31 09:33N 54°15' E 007°20'2 1.6
2015-Mar-31 08:33N 54°16' E 007°18'2 2.2
2015-Mar-31 07:33N 54°17' E 007°15'2 2.4
2015-Mar-31 06:33N 54°19' E 007°11'3 2.5
2015-Mar-31 05:33N 54°20' E 007°08'2 2.2
2015-Mar-31 04:33N 54°21' E 007°04'2 1.9
2015-Mar-31 03:33N 54°21' E 007°01'1 1.4
2015-Mar-31 02:33N 54°21' E 006°59'1 0.9
2015-Mar-31 01:33N 54°20' E 006°58'1 0.6
2015-Mar-31 00:33N 54°20' E 006°57'0 0.1
2015-Mar-30 23:33N 54°20' E 006°57'0 0.4
2015-Mar-30 22:33N 54°20' E 006°57'1 0.5
2015-Mar-30 21:31N 54°20' E 006°57'1 1.3
2015-Mar-30 20:33N 54°21' E 006°56'8 1.6
2015-Mar-30 15:29N 54°14' E 006°53'3 2.8
2015-Mar-30 14:29N 54°14' E 006°58'3 3.0
2015-Mar-30 13:33N 54°14' E 007°03'3 3.2
2015-Mar-30 12:31N 54°15' E 007°08'4 3.8
2015-Mar-30 11:33N 54°14' E 007°14'4 3.8
2015-Mar-30 10:33N 54°14' E 007°21'4 4.2
2015-Mar-30 09:33N 54°12' E 007°27'6 6.2
2015-Mar-30 08:33N 54°06' E 007°26'0 0.1
2015-Mar-30 07:33N 54°06' E 007°26'0 0.1
2015-Mar-30 06:33N 54°06' E 007°26'0 0.0
2015-Mar-30 05:33N 54°06' E 007°26'0 0.0
2015-Mar-30 04:33N 54°06' E 007°26'0 0.0
2015-Mar-30 03:33N 54°06' E 007°26'0 0.0
2015-Mar-30 02:33N 54°06' E 007°26'0 0.0
2015-Mar-30 01:33N 54°06' E 007°26'0 0.0
2015-Mar-30 00:33N 54°06' E 007°26'0 0.0
2015-Mar-29 23:32N 54°06' E 007°26'0 0.0
2015-Mar-29 22:33N 54°06' E 007°26'0 0.1
2015-Mar-29 21:31N 54°06' E 007°26'0 0.1
2015-Mar-29 20:33N 54°06' E 007°26'0 0.0
2015-Mar-29 19:33N 54°06' E 007°26'0 0.0
2015-Mar-29 18:33N 54°06' E 007°26'0 0.1
2015-Mar-29 17:33N 54°06' E 007°26'0 0.0
2015-Mar-29 16:33N 54°06' E 007°26'0 0.0
2015-Mar-29 15:33N 54°06' E 007°26'0 0.0
2015-Mar-29 14:33N 54°06' E 007°26'0 0.0
2015-Mar-29 13:33N 54°06' E 007°26'0 0.0
2015-Mar-29 12:33N 54°06' E 007°26'0 0.0
2015-Mar-29 11:33N 54°06' E 007°26'0 0.0
2015-Mar-29 10:33N 54°06' E 007°26'0 0.0
2015-Mar-29 09:30N 54°06' E 007°26'0 0.0
2015-Mar-29 08:33N 54°06' E 007°26'0 0.0
2015-Mar-29 07:33N 54°06' E 007°26'0 0.0
2015-Mar-29 06:24N 54°06' E 007°26'0 0.0
2015-Mar-29 05:33N 54°06' E 007°26'0 0.0
2015-Mar-29 04:33N 54°06' E 007°26'0 0.0
2015-Mar-29 03:33N 54°06' E 007°26'0 0.0
2015-Mar-29 02:33N 54°06' E 007°26'0 0.0
2015-Mar-29 01:33N 54°06' E 007°26'0 0.0
2015-Mar-29 00:33N 54°06' E 007°26'0 0.0
2015-Mar-28 23:33N 54°06' E 007°26'0 0.0
2015-Mar-28 22:33N 54°06' E 007°26'0 0.1
2015-Mar-28 21:33N 54°06' E 007°26'2 1.6
2015-Mar-28 20:33N 54°07' E 007°28'9 9.3
2015-Mar-28 19:33N 54°16' E 007°21'1111.3
2015-Mar-28 18:33N 54°26' E 007°12'1111.3
2015-Mar-28 17:32N 54°36' E 007°02'2311.3
2015-Mar-28 15:32N 54°56' E 006°45'1211.7
2015-Mar-28 14:33N 55°08' E 006°42'1211.8
2015-Mar-28 13:33N 55°19' E 006°44'1212.1
2015-Mar-28 12:33N 55°31' E 006°45'18610.2
2015-Mar-27 18:22N 57°51' E 010°29'1011.9
2015-Mar-27 17:33N 57°48' E 010°47'9 8.7
2015-Mar-27 16:33N 57°42' E 010°58'1212.4
2015-Mar-27 15:33N 57°33' E 011°15'1212.3
2015-Mar-27 14:33N 57°24' E 011°29'1312.8
2015-Mar-27 13:33N 57°11' E 011°37'1312.7
2015-Mar-27 12:33N 56°59' E 011°44'1212.0
2015-Mar-27 11:33N 56°48' E 011°51'1211.9
2015-Mar-27 10:33N 56°37' E 011°44'12210.9
2015-Mar-26 23:24N 54°38' E 010°55'1011.8
2015-Mar-26 22:33N 54°35' E 011°12'1212.5
2015-Mar-26 21:33N 54°30' E 011°31'1212.4
2015-Mar-26 20:33N 54°26' E 011°52'1211.7
2015-Mar-26 19:33N 54°28' E 012°12'10 9.8
2015-Mar-26 18:33N 54°37' E 012°18'7 7.1
2015-Mar-26 17:33N 54°41' E 012°29'8 7.9
2015-Mar-26 16:33N 54°45' E 012°40'1110.5
2015-Mar-26 15:33N 54°50' E 012°57'1212.4
2015-Mar-26 14:33N 54°54' E 013°17'1312.4
2015-Mar-26 13:31N 54°58' E 013°38'1212.4
2015-Mar-26 12:33N 55°02' E 013°58'1211.8
2015-Mar-26 11:33N 55°10' E 014°13'1212.5
2015-Mar-26 10:33N 55°20' E 014°27'1212.1
2015-Mar-26 09:33N 55°28' E 014°42'1212.6
2015-Mar-26 08:33N 55°34' E 015°02'1212.4
2015-Mar-26 07:33N 55°38' E 015°22'1312.6
2015-Mar-26 06:33N 55°42' E 015°44'6312.5
2015-Mar-26 01:32N 55°58' E 017°32'28912.0
2015-Mar-25 01:30N 59°38' E 023°24'1212.9
2015-Mar-25 00:33N 59°42' E 023°47'8912.7
2015-Mar-24 17:33N 60°01' E 026°39'1711.9
2015-Mar-24 16:09N 60°02' E 027°12'  
2015-Mar-22 00:26N 59°60' E 027°09'1111.5
2015-Mar-21 23:31N 59°59' E 026°48'1611.7
2015-Mar-21 22:08N 59°57' E 026°16'5411.7
2015-Mar-21 17:33N 59°45' E 024°32'2812.3
2015-Mar-21 15:17N 59°36' E 023°39'  
Track history (hours):
 
Tides and Currents Weather Stations Pressure Air Temp Water Temp Dewpoint Dewpoint Depression Visibility Wind Speed Wind Dir Waves Ship Positions

Promitheas

Last reported at 2015-Mar-31 14:33 UTC. Time now 2015-Mar-31 15:34 UTC.
Position N 54°20' E 007°04'.

Length 249 m; draft 14.5 m.

Type: Ship (hazmat cat A). MMSI: 240547000.

Date/timePositionNaut miles runAvg speedWind from/ knotsBaromVisibWave heightAir tempDewpointWater temp
2015-Mar-31 14:33N 54°20' E 007°04'1 1.1
2015-Mar-31 13:33N 54°20' E 007°06'2 2.0
2015-Mar-31 12:33N 54°20' E 007°10'2 1.7
2015-Mar-31 11:33N 54°19' E 007°12'2 2.4
2015-Mar-31 10:33N 54°17' E 007°15'4 3.5
2015-Mar-31 09:33N 54°15' E 007°20'2 1.6
2015-Mar-31 08:33N 54°16' E 007°18'2 2.2
2015-Mar-31 07:33N 54°17' E 007°15'2 2.4
2015-Mar-31 06:33N 54°19' E 007°11'3 2.5
2015-Mar-31 05:33N 54°20' E 007°08'2 2.2
2015-Mar-31 04:33N 54°21' E 007°04'2 1.9
2015-Mar-31 03:33N 54°21' E 007°01'1 1.4
2015-Mar-31 02:33N 54°21' E 006°59'1 0.9
2015-Mar-31 01:33N 54°20' E 006°58'1 0.6
2015-Mar-31 00:33N 54°20' E 006°57'0 0.1
2015-Mar-30 23:33N 54°20' E 006°57'0 0.4
2015-Mar-30 22:33N 54°20' E 006°57'1 0.5
2015-Mar-30 21:31N 54°20' E 006°57'1 1.3
2015-Mar-30 20:33N 54°21' E 006°56'8 1.6
2015-Mar-30 15:29N 54°14' E 006°53'3 2.8
2015-Mar-30 14:29N 54°14' E 006°58'3 3.0
2015-Mar-30 13:33N 54°14' E 007°03'3 3.2
2015-Mar-30 12:31N 54°15' E 007°08'4 3.8
2015-Mar-30 11:33N 54°14' E 007°14'4 3.8
2015-Mar-30 10:33N 54°14' E 007°21'4 4.2
2015-Mar-30 09:33N 54°12' E 007°27'6 6.2
2015-Mar-30 08:33N 54°06' E 007°26'0 0.1
2015-Mar-30 07:33N 54°06' E 007°26'0 0.1
2015-Mar-30 06:33N 54°06' E 007°26'0 0.0
2015-Mar-30 05:33N 54°06' E 007°26'0 0.0
2015-Mar-30 04:33N 54°06' E 007°26'0 0.0
2015-Mar-30 03:33N 54°06' E 007°26'0 0.0
2015-Mar-30 02:33N 54°06' E 007°26'0 0.0
2015-Mar-30 01:33N 54°06' E 007°26'0 0.0
2015-Mar-30 00:33N 54°06' E 007°26'0 0.0
2015-Mar-29 23:32N 54°06' E 007°26'0 0.0
2015-Mar-29 22:33N 54°06' E 007°26'0 0.1
2015-Mar-29 21:31N 54°06' E 007°26'0 0.1
2015-Mar-29 20:33N 54°06' E 007°26'0 0.0
2015-Mar-29 19:33N 54°06' E 007°26'0 0.0
2015-Mar-29 18:33N 54°06' E 007°26'0 0.1
2015-Mar-29 17:33N 54°06' E 007°26'0 0.0
2015-Mar-29 16:33N 54°06' E 007°26'0 0.0
2015-Mar-29 15:33N 54°06' E 007°26'0 0.0
2015-Mar-29 14:33N 54°06' E 007°26'0 0.0
2015-Mar-29 13:33N 54°06' E 007°26'0 0.0
2015-Mar-29 12:33N 54°06' E 007°26'0 0.0
2015-Mar-29 11:33N 54°06' E 007°26'0 0.0
2015-Mar-29 10:33N 54°06' E 007°26'0 0.0
2015-Mar-29 09:30N 54°06' E 007°26'0 0.0
2015-Mar-29 08:33N 54°06' E 007°26'0 0.0
2015-Mar-29 07:33N 54°06' E 007°26'0 0.0
2015-Mar-29 06:24N 54°06' E 007°26'0 0.0
2015-Mar-29 05:33N 54°06' E 007°26'0 0.0
2015-Mar-29 04:33N 54°06' E 007°26'0 0.0
2015-Mar-29 03:33N 54°06' E 007°26'0 0.0
2015-Mar-29 02:33N 54°06' E 007°26'0 0.0
2015-Mar-29 01:33N 54°06' E 007°26'0 0.0
2015-Mar-29 00:33N 54°06' E 007°26'0 0.0
2015-Mar-28 23:33N 54°06' E 007°26'0 0.0
2015-Mar-28 22:33N 54°06' E 007°26'0 0.1
2015-Mar-28 21:33N 54°06' E 007°26'2 1.6
2015-Mar-28 20:33N 54°07' E 007°28'9 9.3
2015-Mar-28 19:33N 54°16' E 007°21'1111.3
2015-Mar-28 18:33N 54°26' E 007°12'1111.3
2015-Mar-28 17:32N 54°36' E 007°02'2311.3
2015-Mar-28 15:32N 54°56' E 006°45'1211.7
2015-Mar-28 14:33N 55°08' E 006°42'1211.8
2015-Mar-28 13:33N 55°19' E 006°44'1212.1
2015-Mar-28 12:33N 55°31' E 006°45'18610.2
2015-Mar-27 18:22N 57°51' E 010°29'1011.9
2015-Mar-27 17:33N 57°48' E 010°47'9 8.7
2015-Mar-27 16:33N 57°42' E 010°58'1212.4
2015-Mar-27 15:33N 57°33' E 011°15'1212.3
2015-Mar-27 14:33N 57°24' E 011°29'1312.8
2015-Mar-27 13:33N 57°11' E 011°37'1312.7
2015-Mar-27 12:33N 56°59' E 011°44'1212.0
2015-Mar-27 11:33N 56°48' E 011°51'1211.9
2015-Mar-27 10:33N 56°37' E 011°44'12210.9
2015-Mar-26 23:24N 54°38' E 010°55'1011.8
2015-Mar-26 22:33N 54°35' E 011°12'1212.5
2015-Mar-26 21:33N 54°30' E 011°31'1212.4
2015-Mar-26 20:33N 54°26' E 011°52'1211.7
2015-Mar-26 19:33N 54°28' E 012°12'10 9.8
2015-Mar-26 18:33N 54°37' E 012°18'7 7.1
2015-Mar-26 17:33N 54°41' E 012°29'8 7.9
2015-Mar-26 16:33N 54°45' E 012°40'1110.5
2015-Mar-26 15:33N 54°50' E 012°57'1212.4
2015-Mar-26 14:33N 54°54' E 013°17'1312.4
2015-Mar-26 13:31N 54°58' E 013°38'1212.4
2015-Mar-26 12:33N 55°02' E 013°58'1211.8
2015-Mar-26 11:33N 55°10' E 014°13'1212.5
2015-Mar-26 10:33N 55°20' E 014°27'1212.1
2015-Mar-26 09:33N 55°28' E 014°42'1212.6
2015-Mar-26 08:33N 55°34' E 015°02'1212.4
2015-Mar-26 07:33N 55°38' E 015°22'1312.6
2015-Mar-26 06:33N 55°42' E 015°44'6312.5
2015-Mar-26 01:32N 55°58' E 017°32'28912.0
2015-Mar-25 01:30N 59°38' E 023°24'1212.9
2015-Mar-25 00:33N 59°42' E 023°47'8912.7
2015-Mar-24 17:33N 60°01' E 026°39'1711.9
2015-Mar-24 16:09N 60°02' E 027°12'  
2015-Mar-22 00:26N 59°60' E 027°09'1111.5
2015-Mar-21 23:31N 59°59' E 026°48'1611.7
2015-Mar-21 22:08N 59°57' E 026°16'5411.7
2015-Mar-21 17:33N 59°45' E 024°32'2812.3
2015-Mar-21 15:17N 59°36' E 023°39'  

Dump ship's entire track history